Time;durP1;ratioP1;P1;durP2;ratioP2;P2;SDS_P1;SDS_P2;PMS_P1;PMS_P2;Temp;Humidity;BMP_temperature;BMP_pressure;BME280_temperature;BME280_humidity;BME280_pressure;Samples;Min_cycle;Max_cycle;Signal;HPM_P1;HPM_P2
2023/03/18 00:01:22;;;;;;;5.20;3.90;;;;;;;12.19;42.25;97463.72;8378948;28;20226;-67
2023/03/18 00:05:25;;;;;;;4.63;3.87;;;;;;;12.38;42.06;97456.50;8378634;28;20221;-67
2023/03/18 00:09:28;;;;;;;4.30;3.83;;;;;;;12.33;42.28;97464.53;8378873;28;20229;-66
2023/03/18 00:13:33;;;;;;;4.83;3.80;;;;;;;12.29;42.51;97452.66;8378543;28;20275;-67
2023/03/18 00:17:36;;;;;;;5.97;4.10;;;;;;;12.13;43.02;97462.31;8378348;28;20225;-67
2023/03/18 00:21:39;;;;;;;5.20;4.07;;;;;;;12.15;42.52;97460.44;8378545;28;20571;-67
2023/03/18 00:25:42;;;;;;;5.70;3.90;;;;;;;12.29;42.63;97468.25;8382008;28;20228;-68
2023/03/18 00:29:46;;;;;;;5.07;4.47;;;;;;;11.73;43.62;97462.81;8385130;28;20221;-68
2023/03/18 00:33:49;;;;;;;6.03;4.40;;;;;;;11.99;43.21;97464.84;8384893;28;20237;-67
2023/03/18 00:37:52;;;;;;;6.90;4.40;;;;;;;12.16;42.70;97475.09;8384929;28;20225;-67
2023/03/18 00:41:55;;;;;;;4.67;4.10;;;;;;;12.22;42.61;97476.50;8384704;28;20421;-67
2023/03/18 00:46:00;;;;;;;5.60;4.40;;;;;;;12.12;42.06;97421.69;8384549;28;20236;-67
2023/03/18 00:50:07;;;;;;;6.17;4.30;;;;;;;12.17;42.41;97448.22;8384446;28;20225;-67
2023/03/18 00:54:12;;;;;;;6.00;4.50;;;;;;;12.29;42.86;97476.03;8384360;28;20232;-67
2023/03/18 00:58:16;;;;;;;5.97;4.00;;;;;;;12.48;42.21;97469.75;8384013;28;20428;-67
2023/03/18 01:02:22;;;;;;;5.13;4.20;;;;;;;12.49;42.12;97463.66;8384159;28;20271;-67
2023/03/18 01:06:27;;;;;;;5.00;4.50;;;;;;;12.33;42.48;97472.31;8384040;28;20248;-67
2023/03/18 01:10:30;;;;;;;5.50;4.40;;;;;;;12.38;42.30;97479.03;8383758;28;20220;-69
2023/03/18 01:14:33;;;;;;;8.23;4.43;;;;;;;12.04;42.85;97476.63;8383613;28;20275;-67
2023/03/18 01:18:38;;;;;;;6.30;4.77;;;;;;;12.22;42.43;97477.34;8383717;28;20225;-67
2023/03/18 01:22:41;;;;;;;4.93;4.43;;;;;;;12.21;42.64;97474.84;8383240;28;20229;-66
2023/03/18 01:26:44;;;;;;;6.53;4.37;;;;;;;12.20;43.39;97488.72;8383136;28;20228;-67
2023/03/18 01:30:47;;;;;;;5.50;4.20;;;;;;;12.23;43.42;97470.38;8383012;28;20413;-66
2023/03/18 01:34:51;;;;;;;7.83;4.20;;;;;;;12.22;43.85;97479.09;8383033;28;20233;-66
2023/03/18 01:38:55;;;;;;;6.00;4.27;;;;;;;12.22;43.71;97489.47;8382458;28;20232;-66
2023/03/18 01:43:00;;;;;;;5.77;4.43;;;;;;;12.16;44.03;97485.47;8382856;28;20268;-66
2023/03/18 01:47:03;;;;;;;6.00;5.20;;;;;;;12.00;45.17;97495.91;8382690;28;20225;-66
2023/03/18 01:51:08;;;;;;;8.57;5.27;;;;;;;12.00;45.55;97489.91;8382665;28;20221;-67
2023/03/18 01:55:14;;;;;;;7.63;4.97;;;;;;;12.00;45.22;97492.50;8382443;28;20528;-66
2023/03/18 01:59:16;;;;;;;5.87;4.70;;;;;;;11.84;45.09;97485.56;8382247;28;20225;-66
2023/03/18 02:03:20;;;;;;;5.07;4.10;;;;;;;11.45;45.33;97421.22;8382085;28;20224;-66
2023/03/18 02:07:26;;;;;;;5.73;4.83;;;;;;;11.85;45.86;97496.75;8381970;28;20236;-66
2023/03/18 02:11:31;;;;;;;6.13;4.47;;;;;;;11.92;45.36;97501.53;8381896;28;20240;-66
2023/03/18 02:15:36;;;;;;;6.63;4.60;;;;;;;11.76;45.32;97503.28;8381619;28;20520;-67
2023/03/18 02:19:51;;;;;;;5.43;4.80;;;;;;;11.74;44.89;97508.56;8381824;28;20225;-66
2023/03/18 02:24:01;;;;;;;9.37;4.93;;;;;;;11.73;45.26;97504.31;8381404;28;20532;-66
2023/03/18 02:28:08;;;;;;;6.00;5.20;;;;;;;11.65;45.20;97511.69;8381008;28;20229;-67
2023/03/18 02:32:12;;;;;;;6.40;4.87;;;;;;;11.71;45.09;97508.75;8381083;28;20228;-66
2023/03/18 02:36:19;;;;;;;6.07;4.73;;;;;;;11.73;45.02;97509.50;8381292;28;20424;-66
2023/03/18 02:40:27;;;;;;;5.50;4.87;;;;;;;11.18;46.26;97509.94;8381098;28;20220;-66
2023/03/18 02:44:34;;;;;;;6.37;4.50;;;;;;;11.58;45.29;97514.72;8380676;28;20232;-66
2023/03/18 02:48:38;;;;;;;4.87;4.27;;;;;;;10.87;46.67;97509.00;8379918;28;20274;-67
2023/03/18 02:52:41;;;;;;;4.70;4.30;;;;;;;11.00;46.71;97514.34;8380269;28;20255;-67
2023/03/18 02:56:44;;;;;;;5.23;4.03;;;;;;;11.42;45.80;97512.94;8380196;28;20229;-67
2023/03/18 03:00:48;;;;;;;4.70;4.00;;;;;;;11.47;45.50;97517.91;8380195;28;20237;-67
2023/03/18 03:04:51;;;;;;;4.87;3.90;;;;;;;11.37;45.40;97525.34;8380256;28;20245;-67
2023/03/18 03:08:57;;;;;;;4.13;3.73;;;;;;;11.33;45.91;97531.63;8380186;28;20421;-67
2023/03/18 03:13:00;;;;;;;5.07;4.20;;;;;;;11.38;45.82;97542.56;8380044;28;20427;-67
2023/03/18 03:17:04;;;;;;;5.57;4.13;;;;;;;11.31;45.58;97546.44;8380050;28;20236;-67
2023/03/18 03:21:08;;;;;;;4.73;4.20;;;;;;;11.09;46.18;97547.56;8380081;28;20229;-67
2023/03/18 03:25:11;;;;;;;5.57;4.23;;;;;;;11.19;45.40;97553.09;8379606;28;20228;-67
2023/03/18 03:29:14;;;;;;;5.00;3.87;;;;;;;11.22;45.74;97541.72;8379422;28;20249;-67
2023/03/18 03:33:18;;;;;;;5.93;4.60;;;;;;;11.34;45.25;97547.06;8379454;28;20382;-67
2023/03/18 03:37:21;;;;;;;6.70;4.20;;;;;;;11.32;45.34;97548.91;8379509;28;20225;-68
2023/03/18 03:41:24;;;;;;;6.33;4.17;;;;;;;11.33;45.39;97548.00;8379333;28;20386;-67
2023/03/18 03:45:27;;;;;;;5.07;4.40;;;;;;;11.19;45.45;97552.25;8378849;28;20228;-66
2023/03/18 03:49:32;;;;;;;5.27;4.10;;;;;;;11.29;45.54;97554.28;8379323;28;20225;-67
2023/03/18 03:53:35;;;;;;;6.33;3.80;;;;;;;11.01;46.20;97552.31;8379002;28;20225;-67
2023/03/18 03:57:44;;;;;;;5.50;4.30;;;;;;;11.14;45.47;97565.47;8378641;28;20240;-67
2023/03/18 04:01:47;;;;;;;5.13;4.63;;;;;;;11.11;45.67;97561.25;8378172;28;20229;-67
2023/03/18 04:05:51;;;;;;;4.37;3.97;;;;;;;10.78;45.92;97566.47;8378782;28;20241;-66
2023/03/18 04:09:54;;;;;;;4.90;4.40;;;;;;;11.09;45.67;97570.03;8378816;28;20232;-67
2023/03/18 04:13:57;;;;;;;5.90;4.07;;;;;;;11.14;45.30;97555.94;8378722;28;20377;-66
2023/03/18 04:18:05;;;;;;;6.13;4.10;;;;;;;11.15;45.29;97564.53;8378578;28;20224;-67
2023/03/18 04:22:09;;;;;;;4.83;4.07;;;;;;;11.20;45.25;97566.91;8378759;28;20236;-67
2023/03/18 04:26:12;;;;;;;5.47;4.53;;;;;;;11.12;45.21;97569.91;8378577;28;20232;-67
2023/03/18 04:30:15;;;;;;;7.50;3.87;;;;;;;11.13;45.18;97567.19;8378459;28;20247;-67
2023/03/18 04:34:18;;;;;;;5.33;4.00;;;;;;;11.09;45.14;97562.28;8378355;28;20424;-67
2023/03/18 04:38:22;;;;;;;4.53;4.03;;;;;;;11.10;45.41;97569.97;8378432;28;20231;-67
2023/03/18 04:42:25;;;;;;;5.17;4.10;;;;;;;10.97;45.47;97561.16;8378284;28;20235;-67
2023/03/18 04:46:28;;;;;;;4.83;4.20;;;;;;;10.93;45.66;97555.31;8378286;28;20540;-67
2023/03/18 04:50:31;;;;;;;5.60;4.30;;;;;;;10.91;45.61;97564.91;8378208;28;20248;-67
2023/03/18 04:54:37;;;;;;;5.77;4.20;;;;;;;10.93;46.07;97572.63;8377982;28;20228;-66
2023/03/18 04:58:40;;;;;;;5.43;4.30;;;;;;;10.66;46.60;97564.50;8377912;28;20254;-67
2023/03/18 05:02:44;;;;;;;5.77;4.17;;;;;;;10.67;46.33;97566.19;8377814;28;20240;-68
2023/03/18 05:06:46;;;;;;;6.93;4.60;;;;;;;10.78;45.72;97573.41;8377893;28;20242;-68
2023/03/18 05:10:50;;;;;;;6.77;4.33;;;;;;;10.58;46.24;97564.88;8378672;28;20221;-67
2023/03/18 05:14:53;;;;;;;4.50;3.77;;;;;;;10.79;46.14;97570.72;8383941;28;20237;-67
2023/03/18 05:18:56;;;;;;;6.83;4.30;;;;;;;10.78;45.77;97563.88;8383919;28;20227;-67
2023/03/18 05:22:59;;;;;;;9.43;6.50;;;;;;;10.66;46.31;97574.84;8383469;28;20235;-67
2023/03/18 05:27:03;;;;;;;8.27;5.93;;;;;;;10.25;46.99;97568.22;8383348;28;20239;-67
2023/03/18 05:31:06;;;;;;;8.33;5.10;;;;;;;10.48;46.31;97572.28;8383016;28;20313;-67
2023/03/18 05:35:11;;;;;;;6.57;4.87;;;;;;;10.60;46.01;97581.19;8382844;28;20522;-67
2023/03/18 05:39:14;;;;;;;10.93;7.70;;;;;;;10.72;46.04;97590.94;8382790;28;20255;-67
2023/03/18 05:43:18;;;;;;;5.93;4.77;;;;;;;10.59;46.44;97582.09;8382817;28;20229;-67
2023/03/18 05:47:21;;;;;;;8.20;4.57;;;;;;;10.75;46.18;97584.75;8382665;28;20402;-67
2023/03/18 05:51:25;;;;;;;6.90;4.93;;;;;;;10.67;46.26;97586.91;8382684;28;20238;-66
2023/03/18 05:55:28;;;;;;;5.13;4.63;;;;;;;10.59;46.64;97594.22;8382255;28;20234;-66
2023/03/18 05:59:33;;;;;;;7.10;4.60;;;;;;;10.45;46.72;97576.78;8382299;28;20236;-66
2023/03/18 06:03:36;;;;;;;5.37;4.87;;;;;;;10.73;46.18;97592.59;8382399;28;20521;-67
2023/03/18 06:07:39;;;;;;;7.83;5.00;;;;;;;10.87;45.81;97594.50;8382074;28;20589;-67
2023/03/18 06:11:42;;;;;;;5.87;4.50;;;;;;;10.99;45.79;97595.59;8381943;28;20228;-67
2023/03/18 06:15:46;;;;;;;8.70;6.20;;;;;;;10.92;46.16;97586.47;8381563;28;20233;-66
2023/03/18 06:19:50;;;;;;;5.10;4.50;;;;;;;10.92;46.04;97586.47;8381791;28;20242;-67
2023/03/18 06:23:53;;;;;;;5.03;4.43;;;;;;;10.80;46.56;97575.00;8381372;28;20241;-67
2023/03/18 06:27:56;;;;;;;5.17;4.67;;;;;;;10.93;46.47;97593.34;8381721;28;20229;-67
2023/03/18 06:32:00;;;;;;;7.00;4.50;;;;;;;10.65;47.55;97596.50;8381691;28;20229;-66
2023/03/18 06:36:04;;;;;;;6.23;4.87;;;;;;;10.75;47.21;97598.53;8381106;28;20228;-67
2023/03/18 06:40:08;;;;;;;6.27;4.40;;;;;;;10.93;46.95;97603.72;8381110;28;20228;-67
2023/03/18 06:44:12;;;;;;;5.13;4.63;;;;;;;10.78;47.65;97607.91;8381351;28;20232;-67
2023/03/18 06:48:16;;;;;;;5.67;4.73;;;;;;;10.73;47.85;97599.53;8380992;28;20520;-67
2023/03/18 06:52:19;;;;;;;5.73;4.40;;;;;;;11.39;46.29;97613.41;8380455;28;20335;-67
2023/03/18 06:56:22;;;;;;;7.10;4.63;;;;;;;11.21;46.74;97615.22;8380560;28;20248;-67
2023/03/18 07:00:25;;;;;;;6.03;4.27;;;;;;;11.25;46.72;97607.22;8380615;28;20230;-67
2023/03/18 07:04:30;;;;;;;4.67;4.10;;;;;;;11.38;46.38;97620.34;8380200;28;20235;-67
2023/03/18 07:08:35;;;;;;;4.53;4.00;;;;;;;11.69;45.83;97621.28;8380117;28;20225;-67
2023/03/18 07:12:39;;;;;;;8.03;4.50;;;;;;;11.59;46.28;97622.72;8380268;28;20229;-67
2023/03/18 07:16:42;;;;;;;6.10;4.93;;;;;;;11.21;46.98;97610.84;8379438;28;20236;-66
2023/03/18 07:20:47;;;;;;;4.70;4.27;;;;;;;11.80;46.52;97623.31;8379833;28;20520;-68
2023/03/18 07:24:51;;;;;;;5.17;4.10;;;;;;;12.25;44.82;97626.91;8379585;28;20232;-68
2023/03/18 07:28:53;;;;;;;7.33;4.83;;;;;;;12.77;43.70;97638.63;8379687;28;20566;-67
2023/03/18 07:32:56;;;;;;;5.53;4.93;;;;;;;12.56;44.47;97646.75;8379399;28;20236;-67
2023/03/18 07:37:01;;;;;;;5.87;4.57;;;;;;;12.90;43.47;97643.03;8379263;28;20268;-67
2023/03/18 07:41:04;;;;;;;6.83;4.97;;;;;;;12.95;43.66;97649.75;8379762;28;20251;-67
2023/03/18 07:45:09;;;;;;;6.30;5.63;;;;;;;13.24;43.30;97655.78;8379532;28;20513;-68
2023/03/18 07:49:11;;;;;;;6.30;4.80;;;;;;;12.66;44.33;97658.28;8379380;28;20221;-67
2023/03/18 07:53:15;;;;;;;6.33;4.80;;;;;;;13.16;43.96;97664.06;8379247;28;20232;-68
2023/03/18 07:57:18;;;;;;;9.03;5.23;;;;;;;13.01;44.27;97652.78;8378710;28;20254;-67
2023/03/18 08:01:21;;;;;;;5.80;5.17;;;;;;;13.19;43.17;97660.41;8379041;28;20598;-67
2023/03/18 08:05:24;;;;;;;5.80;5.00;;;;;;;13.23;44.38;97667.09;8378222;28;20231;-67
2023/03/18 08:09:28;;;;;;;5.20;4.70;;;;;;;14.35;42.55;97654.97;8379004;28;20221;-67
2023/03/18 08:13:31;;;;;;;5.00;4.50;;;;;;;13.83;43.16;97656.53;8378647;28;20227;-68
2023/03/18 08:17:36;;;;;;;7.47;5.60;;;;;;;13.51;44.30;97660.28;8378772;28;20239;-68
2023/03/18 08:21:39;;;;;;;7.23;5.53;;;;;;;13.03;45.53;97661.34;8378771;28;20227;-68
2023/03/18 08:25:48;;;;;;;5.83;4.57;;;;;;;14.23;43.56;97669.63;8377902;28;20226;-68
2023/03/18 08:29:51;;;;;;;5.30;4.23;;;;;;;14.71;42.23;97677.00;8378592;28;20240;-67
2023/03/18 08:33:55;;;;;;;6.43;4.73;;;;;;;14.64;41.82;97681.78;8378268;28;20235;-68
2023/03/18 08:37:57;;;;;;;4.93;4.43;;;;;;;15.50;40.95;97680.41;8378595;28;20257;-68
2023/03/18 08:42:04;;;;;;;6.33;4.50;;;;;;;16.07;39.90;97681.69;8378510;28;20464;-68
2023/03/18 08:46:07;;;;;;;5.27;4.00;;;;;;;16.17;39.56;97679.25;8379652;28;20409;-68
2023/03/18 08:50:12;;;;;;;5.77;4.60;;;;;;;16.49;39.49;97673.47;8385039;28;20527;-68
2023/03/18 08:54:15;;;;;;;8.43;4.83;;;;;;;15.82;40.75;97679.94;8384472;28;20229;-67
2023/03/18 08:58:19;;;;;;;4.93;4.40;;;;;;;16.57;39.71;97674.56;8383900;28;20590;-68
2023/03/18 09:02:22;;;;;;;7.40;5.10;;;;;;;16.56;39.36;97680.75;8384459;28;20501;-68
2023/03/18 09:06:26;;;;;;;5.00;4.50;;;;;;;17.16;38.63;97676.31;8384066;28;20262;-68
2023/03/18 09:10:30;;;;;;;5.53;4.40;;;;;;;17.92;36.72;97679.22;8384066;28;20232;-68
2023/03/18 09:14:35;;;;;;;5.70;5.13;;;;;;;18.05;36.23;97668.63;8384012;28;20401;-68
2023/03/18 09:18:38;;;;;;;6.23;4.93;;;;;;;17.93;37.06;97674.81;8383923;28;20232;-68
2023/03/18 09:22:42;;;;;;;6.30;4.77;;;;;;;18.31;35.97;97676.16;8383910;28;20531;-68
2023/03/18 09:26:46;;;;;;;5.67;5.07;;;;;;;18.46;35.09;97677.53;8383095;28;20236;-68
2023/03/18 09:30:50;;;;;;;5.67;5.10;;;;;;;18.61;35.37;97659.72;8383594;28;20233;-68
2023/03/18 09:34:53;;;;;;;5.90;5.30;;;;;;;17.85;36.30;97666.72;8383354;28;20322;-68
2023/03/18 09:38:56;;;;;;;4.90;4.50;;;;;;;19.23;34.85;97659.88;8383057;28;20232;-68
2023/03/18 09:43:07;;;;;;;6.47;4.63;;;;;;;19.90;34.65;97664.63;8383069;28;20254;-68
2023/03/18 09:47:34;;;;;;;7.37;4.83;;;;;;;19.21;34.80;97662.66;8383021;28;20233;-68
2023/03/18 09:51:44;;;;;;;7.50;4.60;;;;;;;19.98;33.72;97665.78;8382801;28;20245;-69
2023/03/18 09:55:50;;;;;;;7.97;4.30;;;;;;;20.67;32.33;97670.97;8381543;28;20249;-67
2023/03/18 09:59:54;;;;;;;5.97;4.93;;;;;;;20.11;32.86;97682.13;8381951;28;20238;-67
2023/03/18 10:04:03;;;;;;;6.00;4.10;;;;;;;20.56;31.24;97678.16;8382492;28;20238;-69
2023/03/18 10:08:11;;;;;;;4.67;3.80;;;;;;;21.51;30.10;97684.47;8382067;28;20235;-68
2023/03/18 10:12:16;;;;;;;6.17;4.03;;;;;;;21.35;30.56;97685.03;8382301;28;20279;-69
2023/03/18 10:16:23;;;;;;;4.40;3.80;;;;;;;21.52;30.66;97678.22;8382001;28;20305;-68
2023/03/18 10:20:33;;;;;;;3.93;3.33;;;;;;;21.75;28.43;97683.97;8381918;28;20229;-68
2023/03/18 10:24:39;;;;;;;5.67;3.80;;;;;;;21.48;29.99;97665.34;8381723;28;20236;-68
2023/03/18 10:29:03;;;;;;;5.00;3.13;;;;;;;22.46;33.79;97670.09;8381085;28;20232;-68
2023/03/18 10:33:13;;;;;;;3.77;3.30;;;;;;;22.93;30.95;97666.41;8381709;28;20240;-69
2023/03/18 10:37:38;;;;;;;5.67;3.63;;;;;;;21.36;29.80;97650.66;8381510;28;20236;-68
2023/03/18 10:41:42;;;;;;;6.83;3.70;;;;;;;21.13;29.31;97636.16;8381397;28;20233;-68
2023/03/18 10:45:46;;;;;;;4.67;3.40;;;;;;;22.29;28.79;97647.19;8381126;28;20512;-68
2023/03/18 10:50:00;;;;;;;5.63;3.37;;;;;;;21.64;29.05;97646.28;8381180;28;20232;-68
2023/03/18 10:54:09;;;;;;;6.27;3.40;;;;;;;21.33;29.17;97648.31;8380681;28;20220;-68
2023/03/18 10:58:15;;;;;;;4.53;3.23;;;;;;;22.54;28.33;97642.97;8380607;28;20244;-68
2023/03/18 11:02:22;;;;;;;4.80;3.10;;;;;;;22.15;28.03;97633.50;8380773;28;20421;-68
2023/03/18 11:06:30;;;;;;;5.90;3.30;;;;;;;22.59;27.75;97625.69;8380700;28;20311;-68
2023/03/18 11:10:38;;;;;;;4.10;3.10;;;;;;;22.44;27.56;97635.13;8379590;28;20228;-68
2023/03/18 11:14:49;;;;;;;5.53;3.10;;;;;;;22.52;27.68;97629.91;8380016;28;20233;-69
2023/03/18 11:18:53;;;;;;;5.00;3.00;;;;;;;22.33;27.72;97627.44;8380074;28;20233;-68
2023/03/18 11:23:11;;;;;;;3.30;2.63;;;;;;;23.11;27.36;97629.41;8380107;28;20229;-68
2023/03/18 11:27:34;;;;;;;5.23;2.77;;;;;;;22.59;27.88;97632.78;8379958;28;20274;-68
2023/03/18 11:31:48;;;;;;;5.70;3.30;;;;;;;22.05;27.99;97630.13;8380265;28;20235;-71
2023/03/18 11:35:53;;;;;;;4.77;2.50;;;;;;;22.73;27.48;97624.34;8379529;28;20252;-70
2023/03/18 11:40:11;;;;;;;4.30;2.50;;;;;;;23.35;27.79;97618.16;8379716;28;20437;-70
2023/03/18 11:44:18;;;;;;;3.53;2.47;;;;;;;23.09;27.50;97594.41;8380057;28;20221;-70
2023/03/18 11:48:34;;;;;;;4.70;2.57;;;;;;;23.12;26.96;97610.78;8379718;28;20572;-70
2023/03/18 11:52:40;;;;;;;3.90;2.70;;;;;;;22.34;29.34;97605.38;8379411;28;20225;-71
2023/03/18 11:56:45;;;;;;;3.40;2.60;;;;;;;22.40;28.76;97597.66;8379043;28;20229;-70
2023/03/18 12:00:54;;;;;;;4.13;2.90;;;;;;;22.03;29.87;97597.81;8379403;28;20231;-71
2023/03/18 12:05:22;;;;;;;3.83;3.00;;;;;;;22.87;27.97;97593.91;8379161;28;20236;-71
2023/03/18 12:09:37;;;;;;;3.40;2.30;;;;;;;22.89;27.80;97589.31;8378702;28;20220;-71
2023/03/18 12:13:51;;;;;;;3.00;2.00;;;;;;;23.40;28.43;97576.25;8378959;28;20225;-71
2023/03/18 12:18:05;;;;;;;4.97;2.47;;;;;;;23.45;27.40;97573.13;8378809;28;20462;-70
2023/03/18 12:22:26;;;;;;;2.30;2.10;;;;;;;23.47;27.68;97574.63;8383829;28;20232;-70
2023/03/18 12:26:35;;;;;;;5.43;2.50;;;;;;;23.50;28.09;97569.03;8385644;28;20532;-71
2023/03/18 12:31:14;;;;;;;2.30;2.10;;;;;;;23.65;28.09;97565.78;8385346;28;20229;-70
2023/03/18 12:35:35;;;;;;;8.33;2.30;;;;;;;23.66;28.14;97559.50;8378843;28;20409;-70
2023/03/18 12:39:55;;;;;;;5.90;2.60;;;;;;;23.12;27.28;97568.53;8385157;28;20228;-71
2023/03/18 12:44:07;;;;;;;3.33;2.50;;;;;;;23.03;27.90;97556.25;8384826;28;20241;-71
2023/03/18 12:48:14;;;;;;;3.33;2.13;;;;;;;23.80;26.71;97565.03;8385053;28;20225;-72
2023/03/18 12:52:26;;;;;;;4.47;2.03;;;;;;;23.86;27.98;97563.56;8385151;28;20228;-71
2023/03/18 12:56:29;;;;;;;2.50;2.20;;;;;;;23.47;27.31;97563.22;8384362;28;20237;-68
2023/03/18 13:00:34;;;;;;;2.70;2.23;;;;;;;22.23;29.35;97562.38;8384733;28;20221;-71
2023/03/18 13:04:40;;;;;;;4.10;2.57;;;;;;;22.93;27.25;97561.63;8384404;28;20244;-69
2023/03/18 13:09:03;;;;;;;3.93;2.67;;;;;;;21.40;30.47;97559.84;8383533;28;20236;-69
2023/03/18 13:13:09;;;;;;;3.27;2.10;;;;;;;22.84;29.03;97559.91;8384093;28;20228;-69
2023/03/18 13:17:16;;;;;;;3.43;2.43;;;;;;;21.92;29.03;97550.56;8383931;28;20585;-69
2023/03/18 13:21:21;;;;;;;3.20;2.33;;;;;;;22.08;27.97;97544.59;8383937;28;20229;-69
2023/03/18 13:25:33;;;;;;;4.03;2.43;;;;;;;22.23;29.02;97535.19;8383770;28;20232;-69
2023/03/18 13:29:38;;;;;;;3.10;2.23;;;;;;;21.73;29.07;97552.34;8383386;28;20224;-69
2023/03/18 13:34:25;;;;;;;2.90;2.33;;;;;;;23.10;27.91;97553.81;8382223;28;20233;-69
2023/03/18 13:38:49;;;;;;;5.47;2.13;;;;;;;22.98;26.60;97537.38;8383019;28;20452;-68
2023/03/18 13:42:56;;;;;;;3.30;2.30;;;;;;;22.13;27.65;97534.44;8382791;28;20232;-68
2023/03/18 13:47:01;;;;;;;3.30;2.40;;;;;;;22.53;27.34;97539.25;8383166;28;20402;-68
2023/03/18 13:51:19;;;;;;;4.53;2.80;;;;;;;21.52;28.58;97526.25;8382753;28;20228;-68
2023/03/18 13:55:27;;;;;;;2.60;2.20;;;;;;;22.82;28.18;97535.47;8382649;28;20233;-68
2023/03/18 13:59:45;;;;;;;2.50;2.30;;;;;;;22.65;28.03;97529.25;8382877;28;20232;-67
2023/03/18 14:04:30;;;;;;;5.27;2.67;;;;;;;22.82;27.24;97485.31;8382329;28;20263;-68
2023/03/18 14:08:46;;;;;;;3.07;2.33;;;;;;;22.98;26.52;97535.56;8371072;28;20312;-68
2023/03/18 14:12:49;;;;;;;3.93;2.33;;;;;;;22.55;27.65;97525.91;8381957;28;20225;-69
2023/03/18 14:16:53;;;;;;;3.43;2.90;;;;;;;22.10;28.72;97518.91;8382074;28;20233;-68
2023/03/18 14:21:00;;;;;;;3.07;2.30;;;;;;;22.48;27.46;97524.84;8382165;28;20316;-68
2023/03/18 14:25:19;;;;;;;3.33;2.40;;;;;;;21.81;28.61;97517.34;8381763;28;20225;-68
2023/03/18 14:29:25;;;;;;;2.43;2.00;;;;;;;21.26;29.14;97516.38;8381597;28;20217;-68
2023/03/18 14:33:34;;;;;;;3.40;2.13;;;;;;;22.06;28.40;97513.94;8381739;28;20248;-68
2023/03/18 14:37:56;;;;;;;4.97;2.40;;;;;;;20.76;29.30;97518.53;8381345;28;20559;-68
2023/03/18 14:42:01;;;;;;;6.70;2.40;;;;;;;20.64;29.72;97517.88;8381238;28;20235;-68
2023/03/18 14:46:08;;;;;;;3.97;2.00;;;;;;;20.02;30.53;97527.88;8381027;28;20224;-67
2023/03/18 14:50:22;;;;;;;2.20;2.00;;;;;;;20.35;30.33;97513.44;8380741;28;20340;-68
2023/03/18 14:54:36;;;;;;;4.80;2.50;;;;;;;19.79;31.22;97504.47;8380887;28;20232;-68
2023/03/18 14:58:38;;;;;;;3.60;2.57;;;;;;;19.77;31.10;97506.41;8380608;28;20239;-68
2023/03/18 15:02:44;;;;;;;3.63;2.73;;;;;;;19.29;31.41;97500.06;8380340;28;20242;-68
2023/03/18 15:06:49;;;;;;;5.07;3.27;;;;;;;20.03;30.94;97497.97;8380311;28;20237;-67
2023/03/18 15:10:52;;;;;;;3.67;2.30;;;;;;;19.65;30.47;97504.88;8380140;28;20227;-67
2023/03/18 15:14:55;;;;;;;4.53;2.30;;;;;;;19.91;30.76;97507.78;8380062;28;20238;-67
2023/03/18 15:18:58;;;;;;;3.63;2.33;;;;;;;19.93;33.08;97500.59;8380004;28;20230;-68
2023/03/18 15:23:03;;;;;;;6.57;4.07;;;;;;;20.10;30.81;97502.56;8380062;28;20245;-67
2023/03/18 15:27:12;;;;;;;4.13;2.40;;;;;;;20.26;30.75;97503.78;8379840;28;20221;-67
2023/03/18 15:31:24;;;;;;;2.43;2.13;;;;;;;20.29;31.22;97504.31;8379715;28;20324;-68
2023/03/18 15:35:28;;;;;;;7.23;3.80;;;;;;;20.20;30.84;97510.44;8379733;28;20557;-67
2023/03/18 15:39:35;;;;;;;4.57;2.70;;;;;;;20.07;30.53;97504.63;8379324;28;20227;-67
2023/03/18 15:43:42;;;;;;;5.57;4.27;;;;;;;19.93;30.64;97500.59;8379453;28;20264;-68
2023/03/18 15:47:46;;;;;;;3.50;2.07;;;;;;;20.06;30.52;97513.47;8378899;28;20227;-67
2023/03/18 15:51:48;;;;;;;5.30;3.53;;;;;;;19.65;31.55;97494.34;8379190;28;20242;-68
2023/03/18 15:55:55;;;;;;;3.93;2.10;;;;;;;19.44;31.21;97494.44;8378287;28;20235;-68
2023/03/18 15:59:58;;;;;;;4.47;2.70;;;;;;;19.52;31.43;97490.19;8378746;28;20234;-67
2023/03/18 16:04:02;;;;;;;4.57;2.90;;;;;;;19.55;34.36;97473.31;8378845;28;20241;-67
2023/03/18 16:08:08;;;;;;;3.60;2.00;;;;;;;19.70;31.99;97485.09;8378746;28;20235;-68
2023/03/18 16:12:18;;;;;;;4.73;2.63;;;;;;;19.71;31.96;97489.38;8378640;28;20233;-68
2023/03/18 16:16:24;;;;;;;2.37;2.17;;;;;;;19.47;31.30;97486.28;8378664;28;20244;-68
2023/03/18 16:20:30;;;;;;;3.20;2.00;;;;;;;19.40;31.70;97480.78;8378644;28;20217;-67
2023/03/18 16:24:32;;;;;;;3.33;1.93;;;;;;;19.47;33.69;97484.50;8378521;28;20225;-67
2023/03/18 16:28:37;;;;;;;1.87;1.60;;;;;;;19.41;33.99;97492.91;8378731;28;20225;-67
2023/03/18 16:32:39;;;;;;;2.80;1.70;;;;;;;19.37;33.44;97498.59;8378533;28;20229;-67
2023/03/18 16:36:42;;;;;;;3.40;3.07;;;;;;;19.29;33.53;97501.88;8378068;28;20224;-67
2023/03/18 16:40:46;;;;;;;8.23;6.07;;;;;;;19.23;34.80;97498.00;8378371;28;20230;-68
2023/03/18 16:44:50;;;;;;;12.77;7.40;;;;;;;19.20;35.27;97506.13;8378457;28;20237;-67
2023/03/18 16:48:52;;;;;;;4.73;2.70;;;;;;;19.09;34.85;97507.03;8378319;28;20233;-67
2023/03/18 16:52:55;;;;;;;3.27;2.43;;;;;;;19.07;35.25;97511.59;8378096;28;20233;-68
2023/03/18 16:57:00;;;;;;;4.77;3.10;;;;;;;19.03;36.14;97510.22;8378265;28;20438;-68
2023/03/18 17:01:05;;;;;;;5.17;2.80;;;;;;;18.94;36.52;97513.63;8377976;28;20228;-67
2023/03/18 17:05:14;;;;;;;3.90;2.37;;;;;;;18.85;36.22;97514.41;8377999;28;20582;-67
2023/03/18 17:09:18;;;;;;;4.17;2.23;;;;;;;18.80;36.79;97514.81;8382386;28;20239;-67
2023/03/18 17:13:22;;;;;;;7.43;2.70;;;;;;;18.72;37.51;97515.44;8384251;28;20430;-67
2023/03/18 17:17:28;;;;;;;3.93;2.60;;;;;;;18.61;36.96;97519.91;8383733;28;20229;-67
2023/03/18 17:21:32;;;;;;;4.17;2.87;;;;;;;18.54;37.39;97525.69;8383529;28;20232;-67
2023/03/18 17:25:35;;;;;;;4.77;4.00;;;;;;;18.49;40.11;97522.59;8383493;28;20228;-67
2023/03/18 17:29:38;;;;;;;13.90;8.50;;;;;;;18.39;36.52;97524.34;8383361;28;20595;-68
2023/03/18 17:33:42;;;;;;;13.90;7.83;;;;;;;18.40;37.07;97519.94;8383649;28;20236;-67
2023/03/18 17:37:45;;;;;;;20.27;7.07;;;;;;;18.36;38.04;97514.09;8382980;28;20233;-68
2023/03/18 17:41:48;;;;;;;10.30;5.30;;;;;;;18.24;37.54;97526.44;8382984;28;20251;-68
2023/03/18 17:45:51;;;;;;;5.93;4.70;;;;;;;18.17;38.15;97533.97;8383079;28;20240;-68
2023/03/18 17:49:55;;;;;;;21.57;7.63;;;;;;;18.14;38.57;97530.75;8383088;28;20280;-68
2023/03/18 17:54:00;;;;;;;12.13;6.37;;;;;;;18.07;39.40;97532.25;8382581;28;20232;-67
2023/03/18 17:58:05;;;;;;;32.60;25.03;;;;;;;18.08;40.30;97521.63;8382677;28;20239;-67
2023/03/18 18:02:12;;;;;;;60.63;46.87;;;;;;;17.93;40.26;97520.25;8381932;28;20228;-68
2023/03/18 18:06:18;;;;;;;335.87;269.27;;;;;;;18.40;39.96;97535.66;8382334;28;20363;-68
2023/03/18 18:10:21;;;;;;;21.67;15.20;;;;;;;18.73;40.40;97532.84;8382325;28;20228;-69
2023/03/18 18:14:27;;;;;;;29.17;26.07;;;;;;;18.77;39.49;97530.75;8382082;28;20239;-70
2023/03/18 18:18:31;;;;;;;41.50;22.57;;;;;;;19.03;39.52;97527.75;8381960;28;20331;-69
2023/03/18 18:22:43;;;;;;;16.90;13.13;;;;;;;19.43;38.32;97524.28;8382048;28;20221;-69
2023/03/18 18:26:47;;;;;;;18.83;16.83;;;;;;;19.31;39.14;97524.41;8381649;28;20229;-70
2023/03/18 18:30:50;;;;;;;15.93;12.67;;;;;;;19.96;37.74;97537.13;8382056;28;20225;-69
2023/03/18 18:34:53;;;;;;;79.30;71.87;;;;;;;19.73;38.67;97532.13;8381555;28;20533;-70
2023/03/18 18:38:57;;;;;;;17.93;14.40;;;;;;;19.85;37.52;97537.25;8381302;28;20315;-70
2023/03/18 18:43:00;;;;;;;16.67;12.27;;;;;;;19.57;39.37;97541.47;8381366;28;20237;-67
2023/03/18 18:47:03;;;;;;;368.40;243.97;;;;;;;19.62;38.80;97540.09;8381125;28;20222;-68
2023/03/18 18:51:06;;;;;;;51.23;36.93;;;;;;;19.57;38.85;97550.16;8381168;28;20229;-68
2023/03/18 18:55:10;;;;;;;596.53;533.43;;;;;;;19.59;37.56;97535.13;8380618;28;20222;-70
2023/03/18 18:59:23;;;;;;;110.63;100.13;;;;;;;18.90;37.72;97523.53;8380438;28;20231;-69
2023/03/18 19:03:29;;;;;;;343.00;308.00;;;;;;;19.34;35.97;97537.28;8380563;28;20230;-69
2023/03/18 19:07:33;;;;;;;67.40;60.73;;;;;;;19.24;36.27;97539.00;8380525;28;20230;-69
2023/03/18 19:11:37;;;;;;;11.77;9.50;;;;;;;19.17;36.66;97524.75;8380596;28;20229;-69
2023/03/18 19:15:41;;;;;;;38.30;11.67;;;;;;;19.24;36.71;97527.69;8380431;28;20448;-69